PGT461 LJLJ-LTFJ
Flight info
| Callsign | PGT461 |
|---|---|
| Flight time | 1h 50m |
| Altitude | 37000 |
| Route | LUPIX2E LUPIX DCT MAGAM DCT TUVAR DCT OKLOP DCT ETIDA M19 ADORU UM19 IBODU |
| Aircraft | B738/M-SDE2E3FGIRWXY/LB1 |
Departure
| Time | 2026-04-20 14:00 |
|---|---|
| Airport | Ljubljana Jože Pučnik Airport (LJLJ) |
Arrival
| Time | 2026-04-20 15:50 |
|---|---|
| Airport | Istanbul Sabiha Gökçen International Airport (LTFJ) |
| Time | Latitude | Longitude | Altitude | Speed | Heading |
|---|---|---|---|---|---|
| 2026-04-20 13:16 | 46.23024 | 14.45417 | 1257 ft | 0 kts | 36° |
| 2026-04-20 13:16 | 46.23024 | 14.45416 | 1257 ft | 0 kts | 36° |
| 2026-04-20 13:36 | 46.23023 | 14.45416 | 1293 ft | 0 kts | 36° |
| 2026-04-20 13:42 | 46.23023 | 14.45415 | 1257 ft | 0 kts | 36° |
| 2026-04-20 13:49 | 46.23015 | 14.45406 | 1265 ft | 4 kts | 36° |
| 2026-04-20 13:50 | 46.22995 | 14.45386 | 1260 ft | 4 kts | 29° |
| 2026-04-20 13:50 | 46.22974 | 14.45379 | 1257 ft | 4 kts | 328° |
| 2026-04-20 13:50 | 46.22957 | 14.45402 | 1257 ft | 1 kts | 306° |
| 2026-04-20 13:50 | 46.22954 | 14.45408 | 1257 ft | 2 kts | 306° |
| 2026-04-20 13:52 | 46.22944 | 14.45429 | 1257 ft | 3 kts | 306° |
| 2026-04-20 13:53 | 46.22932 | 14.45453 | 1262 ft | 3 kts | 306° |
| 2026-04-20 13:53 | 46.22928 | 14.45461 | 1260 ft | 0 kts | 306° |
| 2026-04-20 13:54 | 46.22928 | 14.45460 | 1260 ft | 2 kts | 306° |
| 2026-04-20 13:54 | 46.22932 | 14.45417 | 1264 ft | 7 kts | 243° |
| 2026-04-20 13:54 | 46.22885 | 14.45358 | 1262 ft | 9 kts | 218° |
| 2026-04-20 13:55 | 46.22847 | 14.45289 | 1260 ft | 9 kts | 273° |
| 2026-04-20 13:55 | 46.22890 | 14.45203 | 1262 ft | 13 kts | 307° |
| 2026-04-20 13:55 | 46.22957 | 14.45071 | 1261 ft | 19 kts | 306° |
| 2026-04-20 13:55 | 46.23035 | 14.44921 | 1263 ft | 19 kts | 306° |
| 2026-04-20 13:56 | 46.23111 | 14.44772 | 1272 ft | 18 kts | 307° |
| 2026-04-20 13:56 | 46.23184 | 14.44629 | 1271 ft | 17 kts | 306° |
| 2026-04-20 13:56 | 46.23255 | 14.44491 | 1273 ft | 17 kts | 306° |
| 2026-04-20 13:56 | 46.23323 | 14.44358 | 1280 ft | 16 kts | 306° |
| 2026-04-20 13:57 | 46.23387 | 14.44235 | 1282 ft | 11 kts | 308° |
| 2026-04-20 13:57 | 46.23397 | 14.44144 | 1284 ft | 8 kts | 256° |
| 2026-04-20 13:57 | 46.23359 | 14.44092 | 1285 ft | 8 kts | 203° |
| 2026-04-20 13:57 | 46.23307 | 14.44081 | 1289 ft | 8 kts | 173° |
| 2026-04-20 13:58 | 46.23253 | 14.44057 | 1287 ft | 6 kts | 208° |
| 2026-04-20 13:58 | 46.23230 | 14.44073 | 1282 ft | 0 kts | 124° |
| 2026-04-20 13:59 | 46.23229 | 14.44076 | 1282 ft | 2 kts | 124° |
| 2026-04-20 13:59 | 46.23125 | 14.44282 | 1276 ft | 59 kts | 126° |
| 2026-04-20 14:00 | 46.22756 | 14.45007 | 1262 ft | 120 kts | 126° |
| 2026-04-20 14:00 | 46.22149 | 14.46181 | 1327 ft | 163 kts | 125° |
| 2026-04-20 14:00 | 46.21485 | 14.47492 | 2100 ft | 164 kts | 125° |
| 2026-04-20 14:00 | 46.20802 | 14.48832 | 3015 ft | 168 kts | 127° |
| 2026-04-20 14:01 | 46.20208 | 14.50356 | 3711 ft | 177 kts | 114° |
| 2026-04-20 14:01 | 46.19720 | 14.52025 | 4447 ft | 183 kts | 115° |
| 2026-04-20 14:01 | 46.19191 | 14.53813 | 4919 ft | 208 kts | 115° |
| 2026-04-20 14:01 | 46.18582 | 14.55855 | 5152 ft | 234 kts | 115° |
| 2026-04-20 14:02 | 46.17905 | 14.58113 | 5486 ft | 255 kts | 114° |
| 2026-04-20 14:02 | 46.17156 | 14.60586 | 5824 ft | 279 kts | 115° |
| 2026-04-20 14:02 | 46.16370 | 14.63179 | 6653 ft | 284 kts | 114° |
| 2026-04-20 14:02 | 46.15567 | 14.65814 | 7444 ft | 291 kts | 114° |
| 2026-04-20 14:03 | 46.14467 | 14.68254 | 8227 ft | 293 kts | 139° |
| 2026-04-20 14:03 | 46.12870 | 14.70081 | 9111 ft | 295 kts | 147° |
| 2026-04-20 14:03 | 46.11153 | 14.71763 | 9877 ft | 301 kts | 148° |
| 2026-04-20 14:03 | 46.09419 | 14.73439 | 10570 ft | 306 kts | 148° |
| 2026-04-20 14:04 | 46.07648 | 14.75172 | 11320 ft | 310 kts | 148° |
| 2026-04-20 14:04 | 46.05878 | 14.77045 | 11792 ft | 328 kts | 138° |
| 2026-04-20 14:04 | 46.04378 | 14.79686 | 12002 ft | 353 kts | 127° |
| 2026-04-20 14:04 | 46.03132 | 14.82842 | 12365 ft | 371 kts | 109° |
| 2026-04-20 14:05 | 46.02577 | 14.86493 | 13043 ft | 376 kts | 97° |
| 2026-04-20 14:05 | 46.02276 | 14.90235 | 13793 ft | 380 kts | 95° |
| 2026-04-20 14:05 | 46.02045 | 14.94066 | 14418 ft | 386 kts | 94° |
| 2026-04-20 14:05 | 46.01837 | 14.97944 | 15081 ft | 391 kts | 93° |
| 2026-04-20 14:06 | 46.01626 | 15.01869 | 15716 ft | 397 kts | 93° |
| 2026-04-20 14:06 | 46.01403 | 15.05848 | 16364 ft | 401 kts | 94° |
| 2026-04-20 14:06 | 46.01248 | 15.08515 | 16787 ft | 405 kts | 94° |
| 2026-04-20 14:06 | 46.00921 | 15.13986 | 17548 ft | 414 kts | 94° |
| 2026-04-20 14:07 | 46.00670 | 15.18084 | 18210 ft | 418 kts | 94° |
| 2026-04-20 14:07 | 46.00408 | 15.22272 | 18776 ft | 423 kts | 94° |
| 2026-04-20 14:07 | 46.00142 | 15.26508 | 19335 ft | 427 kts | 94° |
| 2026-04-20 14:07 | 45.99872 | 15.30782 | 19906 ft | 431 kts | 94° |
| 2026-04-20 14:08 | 45.99597 | 15.35105 | 20441 ft | 435 kts | 94° |
| 2026-04-20 14:08 | 45.99318 | 15.39464 | 20985 ft | 439 kts | 94° |
| 2026-04-20 14:08 | 45.99036 | 15.43853 | 21526 ft | 443 kts | 94° |
| 2026-04-20 14:08 | 45.98748 | 15.48297 | 22041 ft | 448 kts | 94° |
| 2026-04-20 14:09 | 45.98461 | 15.52719 | 22561 ft | 452 kts | 95° |
| 2026-04-20 14:09 | 45.98162 | 15.57290 | 23092 ft | 455 kts | 95° |
| 2026-04-20 14:09 | 45.97867 | 15.61781 | 23594 ft | 459 kts | 95° |
| 2026-04-20 14:09 | 45.97563 | 15.66367 | 24010 ft | 463 kts | 95° |
| 2026-04-20 14:10 | 45.97130 | 15.70979 | 24385 ft | 467 kts | 101° |
| 2026-04-20 14:10 | 45.96244 | 15.75499 | 24783 ft | 471 kts | 108° |
| 2026-04-20 14:10 | 45.95194 | 15.79979 | 25176 ft | 474 kts | 109° |
| 2026-04-20 14:10 | 45.94099 | 15.84483 | 25553 ft | 478 kts | 110° |
| 2026-04-20 14:11 | 45.92991 | 15.89019 | 25922 ft | 482 kts | 109° |
| 2026-04-20 14:11 | 45.91885 | 15.93581 | 26290 ft | 486 kts | 109° |
| 2026-04-20 14:11 | 45.90781 | 15.98183 | 26658 ft | 490 kts | 109° |
| 2026-04-20 14:11 | 45.89687 | 16.02778 | 26979 ft | 493 kts | 109° |
| 2026-04-20 14:12 | 45.88566 | 16.07513 | 27333 ft | 497 kts | 108° |
| 2026-04-20 14:12 | 45.87469 | 16.12152 | 27667 ft | 500 kts | 108° |
| 2026-04-20 14:12 | 45.86347 | 16.16894 | 27993 ft | 503 kts | 108° |
| 2026-04-20 14:12 | 45.85217 | 16.21659 | 28308 ft | 507 kts | 108° |
| 2026-04-20 14:13 | 45.84072 | 16.26477 | 28632 ft | 510 kts | 108° |
| 2026-04-20 14:13 | 45.82922 | 16.31302 | 28950 ft | 514 kts | 108° |
| 2026-04-20 14:13 | 45.81758 | 16.36168 | 29242 ft | 517 kts | 108° |
| 2026-04-20 14:13 | 45.80588 | 16.41053 | 29544 ft | 520 kts | 108° |
| 2026-04-20 14:14 | 45.79409 | 16.45964 | 29847 ft | 523 kts | 108° |
| 2026-04-20 14:14 | 45.78217 | 16.50915 | 30137 ft | 526 kts | 108° |
| 2026-04-20 14:14 | 45.77019 | 16.55878 | 30377 ft | 528 kts | 108° |
| 2026-04-20 14:14 | 45.75814 | 16.60862 | 30658 ft | 530 kts | 108° |
| 2026-04-20 14:15 | 45.74604 | 16.65856 | 30947 ft | 531 kts | 108° |
| 2026-04-20 14:15 | 45.73388 | 16.70860 | 31259 ft | 531 kts | 108° |
| 2026-04-20 14:15 | 45.72173 | 16.75849 | 31640 ft | 530 kts | 108° |
| 2026-04-20 14:15 | 45.70961 | 16.80816 | 32029 ft | 528 kts | 108° |
| 2026-04-20 14:16 | 45.69749 | 16.85775 | 32389 ft | 527 kts | 108° |
| 2026-04-20 14:16 | 45.68551 | 16.90664 | 32703 ft | 527 kts | 108° |
| 2026-04-20 14:16 | 45.67335 | 16.95613 | 33034 ft | 527 kts | 108° |
| 2026-04-20 14:16 | 45.66116 | 17.00568 | 33379 ft | 526 kts | 108° |
| 2026-04-20 14:17 | 45.64903 | 17.05487 | 33731 ft | 525 kts | 108° |
| 2026-04-20 14:17 | 45.63687 | 17.10407 | 34061 ft | 524 kts | 108° |
| 2026-04-20 14:17 | 45.62472 | 17.15310 | 34347 ft | 523 kts | 109° |
| 2026-04-20 14:17 | 45.61670 | 17.18543 | 34575 ft | 521 kts | 109° |
| 2026-04-20 14:18 | 45.60050 | 17.25053 | 35068 ft | 517 kts | 109° |
| 2026-04-20 14:18 | 45.58846 | 17.29885 | 35444 ft | 513 kts | 109° |
| 2026-04-20 14:18 | 45.57661 | 17.34626 | 35791 ft | 510 kts | 109° |
| 2026-04-20 14:18 | 45.56470 | 17.39384 | 36074 ft | 509 kts | 109° |
| 2026-04-20 14:19 | 45.55280 | 17.44127 | 36324 ft | 506 kts | 109° |
| 2026-04-20 14:19 | 45.54097 | 17.48832 | 36574 ft | 503 kts | 109° |
| 2026-04-20 14:19 | 45.52916 | 17.53521 | 36831 ft | 499 kts | 109° |
| 2026-04-20 14:19 | 45.51748 | 17.58149 | 37035 ft | 496 kts | 109° |
| 2026-04-20 14:20 | 45.49393 | 17.67453 | 37045 ft | 502 kts | 109° |
| 2026-04-20 14:20 | 45.47002 | 17.76858 | 37036 ft | 506 kts | 109° |
| 2026-04-20 14:21 | 45.45005 | 17.84687 | 37032 ft | 505 kts | 109° |
| 2026-04-20 14:21 | 45.42599 | 17.94081 | 37028 ft | 504 kts | 109° |
| 2026-04-20 14:22 | 45.39797 | 18.04974 | 37029 ft | 502 kts | 110° |
| 2026-04-20 14:22 | 45.37794 | 18.12726 | 37031 ft | 501 kts | 110° |
| 2026-04-20 14:23 | 45.35384 | 18.22026 | 37033 ft | 500 kts | 110° |
| 2026-04-20 14:23 | 45.32970 | 18.31298 | 37027 ft | 499 kts | 110° |
| 2026-04-20 14:24 | 45.30551 | 18.40558 | 37023 ft | 500 kts | 110° |
| 2026-04-20 14:24 | 45.28124 | 18.49812 | 37028 ft | 498 kts | 110° |
| 2026-04-20 14:25 | 45.25701 | 18.59012 | 37024 ft | 498 kts | 110° |
| 2026-04-20 14:25 | 45.23286 | 18.68148 | 37025 ft | 497 kts | 110° |
| 2026-04-20 14:26 | 45.20851 | 18.77325 | 37023 ft | 496 kts | 110° |
| 2026-04-20 14:26 | 45.18408 | 18.86497 | 37021 ft | 496 kts | 110° |
| 2026-04-20 14:27 | 45.15965 | 18.95638 | 37018 ft | 496 kts | 111° |
| 2026-04-20 14:27 | 45.13507 | 19.04801 | 37022 ft | 497 kts | 111° |
| 2026-04-20 14:28 | 45.10542 | 19.13542 | 37028 ft | 495 kts | 121° |
| 2026-04-20 14:28 | 45.07071 | 19.21981 | 37020 ft | 496 kts | 121° |
| 2026-04-20 14:29 | 45.03580 | 19.30407 | 37019 ft | 497 kts | 121° |
| 2026-04-20 14:29 | 45.00112 | 19.38879 | 37017 ft | 497 kts | 121° |
| 2026-04-20 14:30 | 44.96684 | 19.47294 | 37014 ft | 497 kts | 121° |
| 2026-04-20 14:30 | 44.93226 | 19.55766 | 37015 ft | 498 kts | 121° |
| 2026-04-20 14:31 | 44.89762 | 19.64225 | 37016 ft | 498 kts | 121° |
| 2026-04-20 14:31 | 44.86285 | 19.72684 | 37013 ft | 498 kts | 121° |
| 2026-04-20 14:32 | 44.82805 | 19.81123 | 37011 ft | 498 kts | 121° |
| 2026-04-20 14:32 | 44.79316 | 19.89558 | 37009 ft | 498 kts | 121° |
| 2026-04-20 14:33 | 44.75822 | 19.97982 | 37013 ft | 498 kts | 121° |
| 2026-04-20 14:33 | 44.72324 | 20.06390 | 37010 ft | 498 kts | 121° |
| 2026-04-20 14:34 | 44.68816 | 20.14795 | 37019 ft | 498 kts | 121° |
| 2026-04-20 14:34 | 44.65307 | 20.23181 | 37013 ft | 498 kts | 121° |
| 2026-04-20 14:35 | 44.61811 | 20.31510 | 37014 ft | 498 kts | 122° |
| 2026-04-20 14:35 | 44.58284 | 20.39888 | 36996 ft | 498 kts | 122° |
| 2026-04-20 14:36 | 44.54752 | 20.48254 | 37004 ft | 498 kts | 122° |
| 2026-04-20 14:36 | 44.51210 | 20.56618 | 36997 ft | 499 kts | 122° |
| 2026-04-20 14:37 | 44.47668 | 20.64958 | 36998 ft | 498 kts | 122° |
| 2026-04-20 14:37 | 44.44114 | 20.73303 | 37000 ft | 498 kts | 122° |
| 2026-04-20 14:38 | 44.40563 | 20.81614 | 37002 ft | 498 kts | 122° |
| 2026-04-20 14:38 | 44.37026 | 20.89871 | 36998 ft | 498 kts | 122° |
| 2026-04-20 14:39 | 44.33460 | 20.98170 | 36999 ft | 497 kts | 122° |
| 2026-04-20 14:39 | 44.29889 | 21.06457 | 37001 ft | 498 kts | 122° |
| 2026-04-20 14:40 | 44.26308 | 21.14747 | 36993 ft | 498 kts | 122° |
| 2026-04-20 14:40 | 44.22754 | 21.22947 | 36994 ft | 497 kts | 122° |
| 2026-04-20 14:41 | 44.19171 | 21.31196 | 36990 ft | 497 kts | 122° |
| 2026-04-20 14:41 | 44.15545 | 21.39405 | 36991 ft | 497 kts | 123° |
| 2026-04-20 14:42 | 44.11852 | 21.47555 | 36987 ft | 497 kts | 123° |
| 2026-04-20 14:42 | 44.08148 | 21.55706 | 36995 ft | 497 kts | 123° |
| 2026-04-20 14:43 | 44.04454 | 21.63845 | 36982 ft | 498 kts | 123° |
| 2026-04-20 14:43 | 44.00763 | 21.71967 | 36993 ft | 498 kts | 123° |
| 2026-04-20 14:44 | 43.97060 | 21.80093 | 36972 ft | 498 kts | 123° |
| 2026-04-20 14:44 | 43.93355 | 21.88200 | 36992 ft | 497 kts | 123° |
| 2026-04-20 14:45 | 43.89670 | 21.96240 | 36991 ft | 497 kts | 123° |
| 2026-04-20 14:45 | 43.85957 | 22.04319 | 36969 ft | 497 kts | 123° |
| 2026-04-20 14:46 | 43.82235 | 22.12395 | 36981 ft | 497 kts | 123° |
| 2026-04-20 14:46 | 43.78507 | 22.20462 | 36982 ft | 496 kts | 123° |
| 2026-04-20 14:47 | 43.74775 | 22.28517 | 36956 ft | 496 kts | 123° |
| 2026-04-20 14:48 | 43.69185 | 22.40541 | 36972 ft | 495 kts | 123° |
| 2026-04-20 14:48 | 43.65496 | 22.48505 | 36964 ft | 494 kts | 123° |
| 2026-04-20 14:49 | 43.61807 | 22.56518 | 36967 ft | 494 kts | 123° |
| 2026-04-20 14:49 | 43.58123 | 22.64500 | 36964 ft | 493 kts | 123° |
| 2026-04-20 14:50 | 43.54423 | 22.72483 | 36951 ft | 492 kts | 123° |
| 2026-04-20 14:50 | 43.50729 | 22.80429 | 36955 ft | 492 kts | 123° |
| 2026-04-20 14:51 | 43.47052 | 22.88318 | 36943 ft | 492 kts | 123° |
| 2026-04-20 14:51 | 43.43348 | 22.96246 | 36944 ft | 491 kts | 123° |
| 2026-04-20 14:52 | 43.39661 | 23.04113 | 36945 ft | 491 kts | 123° |
| 2026-04-20 14:52 | 43.35952 | 23.12008 | 36938 ft | 491 kts | 123° |
| 2026-04-20 14:53 | 43.32238 | 23.19900 | 36940 ft | 490 kts | 123° |
| 2026-04-20 14:53 | 43.28550 | 23.27716 | 36936 ft | 490 kts | 123° |
| 2026-04-20 14:54 | 43.24831 | 23.35578 | 36936 ft | 490 kts | 123° |
| 2026-04-20 14:54 | 43.21138 | 23.43364 | 36940 ft | 490 kts | 123° |
| 2026-04-20 14:55 | 43.17401 | 23.51220 | 36918 ft | 490 kts | 123° |
| 2026-04-20 14:55 | 43.13676 | 23.59031 | 36931 ft | 489 kts | 123° |
| 2026-04-20 14:56 | 43.09942 | 23.66843 | 36935 ft | 489 kts | 123° |
| 2026-04-20 14:56 | 43.06223 | 23.74604 | 36932 ft | 489 kts | 123° |
| 2026-04-20 14:57 | 43.02490 | 23.82372 | 36935 ft | 488 kts | 124° |
| 2026-04-20 14:57 | 42.98744 | 23.90120 | 36930 ft | 487 kts | 124° |
| 2026-04-20 14:58 | 42.95032 | 23.97779 | 36932 ft | 487 kts | 124° |
| 2026-04-20 14:58 | 42.91293 | 24.05478 | 36937 ft | 486 kts | 124° |
| 2026-04-20 14:59 | 42.87553 | 24.13166 | 36940 ft | 486 kts | 124° |
| 2026-04-20 14:59 | 42.83904 | 24.20916 | 36943 ft | 485 kts | 120° |
| 2026-04-20 15:00 | 42.80682 | 24.28991 | 36933 ft | 485 kts | 117° |
| 2026-04-20 15:00 | 42.77544 | 24.37133 | 36936 ft | 485 kts | 118° |
| 2026-04-20 15:01 | 42.74390 | 24.45202 | 36925 ft | 485 kts | 118° |
| 2026-04-20 15:01 | 42.71185 | 24.53281 | 36921 ft | 484 kts | 118° |
| 2026-04-20 15:02 | 42.67995 | 24.61270 | 36931 ft | 482 kts | 118° |
| 2026-04-20 15:02 | 42.64787 | 24.69281 | 36919 ft | 481 kts | 118° |
| 2026-04-20 15:03 | 42.61584 | 24.77263 | 36925 ft | 480 kts | 118° |
| 2026-04-20 15:03 | 42.58405 | 24.85165 | 36923 ft | 479 kts | 119° |
| 2026-04-20 15:04 | 42.55203 | 24.93103 | 36910 ft | 478 kts | 119° |
| 2026-04-20 15:04 | 42.52031 | 25.00946 | 36916 ft | 482 kts | 119° |
| 2026-04-20 15:05 | 42.48777 | 25.08969 | 36904 ft | 486 kts | 119° |
| 2026-04-20 15:05 | 42.45530 | 25.16951 | 36899 ft | 487 kts | 119° |
| 2026-04-20 15:06 | 42.42248 | 25.25000 | 36896 ft | 487 kts | 119° |
| 2026-04-20 15:06 | 42.38956 | 25.33048 | 36880 ft | 487 kts | 119° |
| 2026-04-20 15:07 | 42.35696 | 25.40999 | 36882 ft | 484 kts | 119° |
| 2026-04-20 15:07 | 42.32431 | 25.48939 | 36883 ft | 482 kts | 119° |
| 2026-04-20 15:08 | 42.29173 | 25.56841 | 36881 ft | 480 kts | 119° |
| 2026-04-20 15:08 | 42.25923 | 25.64701 | 36884 ft | 478 kts | 119° |
| 2026-04-20 15:09 | 42.22688 | 25.72506 | 36884 ft | 476 kts | 120° |
| 2026-04-20 15:09 | 42.19995 | 25.78986 | 36885 ft | 476 kts | 120° |
| 2026-04-20 15:10 | 42.16748 | 25.86781 | 36886 ft | 476 kts | 120° |
| 2026-04-20 15:10 | 42.13500 | 25.94561 | 36891 ft | 476 kts | 120° |
| 2026-04-20 15:11 | 42.10241 | 26.02343 | 36891 ft | 477 kts | 120° |
| 2026-04-20 15:11 | 42.06980 | 26.10110 | 36890 ft | 479 kts | 120° |
| 2026-04-20 15:12 | 42.03702 | 26.17896 | 36627 ft | 481 kts | 120° |
| 2026-04-20 15:12 | 42.02045 | 26.21825 | 36363 ft | 477 kts | 120° |
| 2026-04-20 15:12 | 42.00410 | 26.25697 | 36110 ft | 473 kts | 120° |
| 2026-04-20 15:12 | 41.98784 | 26.29541 | 35854 ft | 472 kts | 120° |
| 2026-04-20 15:13 | 41.97181 | 26.33327 | 35621 ft | 471 kts | 120° |
| 2026-04-20 15:13 | 41.95563 | 26.37145 | 35363 ft | 470 kts | 120° |
| 2026-04-20 15:13 | 41.93943 | 26.40960 | 35121 ft | 469 kts | 120° |
| 2026-04-20 15:13 | 41.92323 | 26.44773 | 34956 ft | 471 kts | 120° |
| 2026-04-20 15:14 | 41.90691 | 26.48612 | 34927 ft | 474 kts | 120° |
| 2026-04-20 15:14 | 41.87385 | 26.56309 | 34915 ft | 474 kts | 123° |
| 2026-04-20 15:15 | 41.83364 | 26.63252 | 34913 ft | 471 kts | 131° |
| 2026-04-20 15:15 | 41.79119 | 26.69943 | 34897 ft | 470 kts | 131° |
| 2026-04-20 15:16 | 41.74935 | 26.76600 | 34914 ft | 470 kts | 131° |
| 2026-04-20 15:16 | 41.70754 | 26.83315 | 34915 ft | 470 kts | 131° |
| 2026-04-20 15:17 | 41.66565 | 26.90045 | 34923 ft | 470 kts | 130° |
| 2026-04-20 15:17 | 41.62373 | 26.96762 | 34922 ft | 470 kts | 130° |
| 2026-04-20 15:18 | 41.58171 | 27.03478 | 34923 ft | 471 kts | 131° |
| 2026-04-20 15:18 | 41.54320 | 27.10545 | 34919 ft | 472 kts | 114° |
| 2026-04-20 15:19 | 41.51734 | 27.18591 | 34944 ft | 472 kts | 112° |
| 2026-04-20 15:19 | 41.49165 | 27.26617 | 34932 ft | 474 kts | 113° |
| 2026-04-20 15:20 | 41.46478 | 27.34663 | 34932 ft | 475 kts | 114° |
| 2026-04-20 15:20 | 41.43768 | 27.42697 | 34943 ft | 475 kts | 114° |
| 2026-04-20 15:21 | 41.41047 | 27.50744 | 34684 ft | 478 kts | 114° |
| 2026-04-20 15:21 | 41.39688 | 27.54761 | 34445 ft | 474 kts | 114° |
| 2026-04-20 15:21 | 41.38331 | 27.58766 | 34210 ft | 471 kts | 114° |
| 2026-04-20 15:21 | 41.36985 | 27.62738 | 33989 ft | 472 kts | 112° |
| 2026-04-20 15:22 | 41.36015 | 27.66901 | 33683 ft | 470 kts | 96° |
| 2026-04-20 15:22 | 41.35939 | 27.71216 | 33434 ft | 465 kts | 82° |
| 2026-04-20 15:22 | 41.36293 | 27.75502 | 33185 ft | 465 kts | 81° |
| 2026-04-20 15:22 | 41.36694 | 27.79776 | 32918 ft | 466 kts | 81° |
| 2026-04-20 15:23 | 41.37085 | 27.84056 | 32648 ft | 467 kts | 81° |
| 2026-04-20 15:23 | 41.37445 | 27.88296 | 32391 ft | 467 kts | 82° |
| 2026-04-20 15:23 | 41.37787 | 27.92609 | 32125 ft | 468 kts | 82° |
| 2026-04-20 15:23 | 41.38119 | 27.96934 | 31867 ft | 469 kts | 82° |
| 2026-04-20 15:24 | 41.38443 | 28.01268 | 31605 ft | 470 kts | 84° |
| 2026-04-20 15:24 | 41.38330 | 28.05621 | 31315 ft | 473 kts | 99° |
| 2026-04-20 15:24 | 41.37700 | 28.09914 | 31107 ft | 472 kts | 101° |
| 2026-04-20 15:24 | 41.37009 | 28.14180 | 30844 ft | 472 kts | 102° |
| 2026-04-20 15:25 | 41.36310 | 28.18466 | 30564 ft | 469 kts | 101° |
| 2026-04-20 15:25 | 41.35642 | 28.22688 | 30109 ft | 464 kts | 101° |
| 2026-04-20 15:25 | 41.35001 | 28.26863 | 29584 ft | 460 kts | 101° |
| 2026-04-20 15:25 | 41.34376 | 28.31025 | 29089 ft | 454 kts | 101° |
| 2026-04-20 15:26 | 41.33774 | 28.35068 | 28586 ft | 449 kts | 100° |
| 2026-04-20 15:26 | 41.33175 | 28.39099 | 28105 ft | 445 kts | 100° |
| 2026-04-20 15:26 | 41.32571 | 28.43143 | 27614 ft | 440 kts | 100° |
| 2026-04-20 15:26 | 41.31974 | 28.47125 | 27123 ft | 437 kts | 100° |
| 2026-04-20 15:27 | 41.31379 | 28.51069 | 26646 ft | 433 kts | 100° |
| 2026-04-20 15:27 | 41.30801 | 28.54978 | 26168 ft | 429 kts | 98° |
| 2026-04-20 15:27 | 41.30577 | 28.58911 | 25696 ft | 424 kts | 89° |
| 2026-04-20 15:27 | 41.30599 | 28.62793 | 25248 ft | 420 kts | 87° |
| 2026-04-20 15:28 | 41.30672 | 28.66689 | 24777 ft | 417 kts | 87° |
| 2026-04-20 15:28 | 41.30735 | 28.70528 | 24326 ft | 415 kts | 87° |
| 2026-04-20 15:28 | 41.30773 | 28.74366 | 23867 ft | 412 kts | 88° |
| 2026-04-20 15:28 | 41.30790 | 28.78162 | 23402 ft | 410 kts | 88° |
| 2026-04-20 15:29 | 41.30794 | 28.81950 | 22864 ft | 407 kts | 88° |
| 2026-04-20 15:29 | 41.30792 | 28.85694 | 22378 ft | 404 kts | 88° |
| 2026-04-20 15:29 | 41.30789 | 28.89373 | 21930 ft | 400 kts | 88° |
| 2026-04-20 15:29 | 41.30786 | 28.93058 | 21471 ft | 397 kts | 88° |
| 2026-04-20 15:30 | 41.30781 | 28.96718 | 21024 ft | 393 kts | 88° |
| 2026-04-20 15:30 | 41.30776 | 29.00348 | 20580 ft | 390 kts | 88° |
| 2026-04-20 15:30 | 41.30769 | 29.03945 | 20145 ft | 387 kts | 89° |
| 2026-04-20 15:30 | 41.30761 | 29.07507 | 19726 ft | 384 kts | 89° |
| 2026-04-20 15:31 | 41.30753 | 29.11038 | 19189 ft | 377 kts | 89° |
| 2026-04-20 15:31 | 41.30745 | 29.14515 | 18460 ft | 376 kts | 89° |
| 2026-04-20 15:31 | 41.30735 | 29.17987 | 17657 ft | 374 kts | 89° |
| 2026-04-20 15:31 | 41.30724 | 29.21445 | 16934 ft | 370 kts | 89° |
| 2026-04-20 15:32 | 41.30733 | 29.24845 | 16267 ft | 365 kts | 88° |
| 2026-04-20 15:32 | 41.30761 | 29.28228 | 15684 ft | 366 kts | 88° |
| 2026-04-20 15:32 | 41.30791 | 29.31550 | 15340 ft | 362 kts | 88° |
| 2026-04-20 15:32 | 41.30815 | 29.34847 | 15060 ft | 352 kts | 88° |
| 2026-04-20 15:33 | 41.30827 | 29.38096 | 14739 ft | 351 kts | 89° |
| 2026-04-20 15:33 | 41.30819 | 29.41342 | 14265 ft | 352 kts | 89° |
| 2026-04-20 15:33 | 41.30805 | 29.44609 | 13799 ft | 352 kts | 89° |
| 2026-04-20 15:33 | 41.30820 | 29.47864 | 13355 ft | 350 kts | 87° |
| 2026-04-20 15:34 | 41.30902 | 29.51094 | 12949 ft | 347 kts | 86° |
| 2026-04-20 15:34 | 41.31080 | 29.54269 | 12577 ft | 338 kts | 77° |
| 2026-04-20 15:34 | 41.31651 | 29.57176 | 12319 ft | 321 kts | 71° |
| 2026-04-20 15:34 | 41.32291 | 29.59950 | 12048 ft | 310 kts | 71° |
| 2026-04-20 15:35 | 41.32919 | 29.62672 | 11796 ft | 306 kts | 71° |
| 2026-04-20 15:35 | 41.33532 | 29.65397 | 11549 ft | 302 kts | 72° |
| 2026-04-20 15:35 | 41.34117 | 29.68066 | 11291 ft | 299 kts | 72° |
| 2026-04-20 15:35 | 41.34686 | 29.70705 | 11075 ft | 294 kts | 72° |
| 2026-04-20 15:36 | 41.35235 | 29.73274 | 11006 ft | 284 kts | 72° |
| 2026-04-20 15:36 | 41.35760 | 29.75752 | 10995 ft | 276 kts | 72° |
| 2026-04-20 15:36 | 41.36281 | 29.78209 | 11010 ft | 276 kts | 72° |
| 2026-04-20 15:36 | 41.36803 | 29.80679 | 11015 ft | 278 kts | 72° |
| 2026-04-20 15:37 | 41.37109 | 29.83215 | 10991 ft | 280 kts | 94° |
| 2026-04-20 15:37 | 41.36615 | 29.85671 | 11009 ft | 279 kts | 115° |
| 2026-04-20 15:37 | 41.35752 | 29.87988 | 11010 ft | 279 kts | 117° |
| 2026-04-20 15:37 | 41.34874 | 29.90298 | 11005 ft | 280 kts | 116° |
| 2026-04-20 15:38 | 41.34002 | 29.92621 | 11003 ft | 280 kts | 116° |
| 2026-04-20 15:38 | 41.33139 | 29.94944 | 11007 ft | 280 kts | 116° |
| 2026-04-20 15:38 | 41.32041 | 29.97082 | 11005 ft | 280 kts | 134° |
| 2026-04-20 15:38 | 41.30441 | 29.98450 | 10887 ft | 271 kts | 165° |
| 2026-04-20 15:39 | 41.28600 | 29.98606 | 10367 ft | 268 kts | 194° |
| 2026-04-20 15:39 | 41.26878 | 29.97684 | 9911 ft | 264 kts | 216° |
| 2026-04-20 15:39 | 41.25470 | 29.96144 | 9463 ft | 261 kts | 224° |
| 2026-04-20 15:39 | 41.24146 | 29.94497 | 9009 ft | 260 kts | 225° |
| 2026-04-20 15:40 | 41.22840 | 29.92849 | 8578 ft | 258 kts | 225° |
| 2026-04-20 15:40 | 41.21543 | 29.91215 | 8150 ft | 256 kts | 225° |
| 2026-04-20 15:40 | 41.20248 | 29.89593 | 7784 ft | 256 kts | 225° |
| 2026-04-20 15:40 | 41.18956 | 29.87985 | 7551 ft | 253 kts | 225° |
| 2026-04-20 15:41 | 41.17673 | 29.86393 | 7319 ft | 252 kts | 224° |
| 2026-04-20 15:41 | 41.16413 | 29.84833 | 7099 ft | 251 kts | 224° |
| 2026-04-20 15:41 | 41.15129 | 29.83247 | 6880 ft | 251 kts | 224° |
| 2026-04-20 15:41 | 41.13851 | 29.81671 | 6675 ft | 251 kts | 224° |
| 2026-04-20 15:42 | 41.12577 | 29.80100 | 6433 ft | 246 kts | 224° |
| 2026-04-20 15:42 | 41.11347 | 29.78588 | 6211 ft | 237 kts | 224° |
| 2026-04-20 15:42 | 41.10162 | 29.77130 | 5998 ft | 229 kts | 224° |
| 2026-04-20 15:42 | 41.09004 | 29.75706 | 5818 ft | 226 kts | 224° |
| 2026-04-20 15:43 | 41.07855 | 29.74291 | 5634 ft | 224 kts | 224° |
| 2026-04-20 15:43 | 41.06710 | 29.72888 | 5433 ft | 223 kts | 224° |
| 2026-04-20 15:43 | 41.05575 | 29.71495 | 5251 ft | 222 kts | 224° |
| 2026-04-20 15:43 | 41.04448 | 29.70114 | 5058 ft | 220 kts | 224° |
| 2026-04-20 15:44 | 41.03469 | 29.68611 | 4881 ft | 211 kts | 238° |
| 2026-04-20 15:44 | 41.02731 | 29.66960 | 4662 ft | 205 kts | 240° |
| 2026-04-20 15:44 | 41.02035 | 29.65343 | 4479 ft | 202 kts | 240° |
| 2026-04-20 15:44 | 41.01344 | 29.63761 | 4277 ft | 199 kts | 239° |
| 2026-04-20 15:45 | 41.00641 | 29.62179 | 4109 ft | 199 kts | 239° |
| 2026-04-20 15:45 | 40.99941 | 29.60617 | 3919 ft | 196 kts | 239° |
| 2026-04-20 15:45 | 40.99245 | 29.59072 | 3748 ft | 195 kts | 239° |
| 2026-04-20 15:45 | 40.98554 | 29.57541 | 3587 ft | 190 kts | 238° |
| 2026-04-20 15:46 | 40.97928 | 29.56056 | 3534 ft | 181 kts | 244° |
| 2026-04-20 15:46 | 40.97399 | 29.54546 | 3499 ft | 180 kts | 244° |
| 2026-04-20 15:46 | 40.96867 | 29.53053 | 3498 ft | 178 kts | 243° |
| 2026-04-20 15:46 | 40.96335 | 29.51606 | 3479 ft | 178 kts | 243° |
| 2026-04-20 15:47 | 40.95789 | 29.50112 | 3388 ft | 181 kts | 243° |
| 2026-04-20 15:47 | 40.95236 | 29.48611 | 3134 ft | 184 kts | 243° |
| 2026-04-20 15:47 | 40.94684 | 29.47114 | 2849 ft | 176 kts | 243° |
| 2026-04-20 15:47 | 40.94158 | 29.45691 | 2576 ft | 169 kts | 243° |
| 2026-04-20 15:48 | 40.93648 | 29.44304 | 2323 ft | 166 kts | 242° |
| 2026-04-20 15:48 | 40.93152 | 29.42951 | 2093 ft | 157 kts | 243° |
| 2026-04-20 15:48 | 40.92681 | 29.41671 | 1815 ft | 155 kts | 243° |
| 2026-04-20 15:48 | 40.92216 | 29.40408 | 1582 ft | 152 kts | 243° |
| 2026-04-20 15:49 | 40.91754 | 29.39154 | 1339 ft | 151 kts | 243° |
| 2026-04-20 15:49 | 40.91289 | 29.37898 | 1099 ft | 152 kts | 243° |
| 2026-04-20 15:49 | 40.90834 | 29.36654 | 856 ft | 149 kts | 243° |
| 2026-04-20 15:49 | 40.90381 | 29.35417 | 628 ft | 148 kts | 243° |
| 2026-04-20 15:50 | 40.89943 | 29.34225 | 393 ft | 143 kts | 244° |
| 2026-04-20 15:50 | 40.89530 | 29.33096 | 301 ft | 116 kts | 244° |
| 2026-04-20 15:50 | 40.89257 | 29.32354 | 302 ft | 72 kts | 244° |
| 2026-04-20 15:50 | 40.89166 | 29.32105 | 305 ft | 0 kts | 246° |
| 2026-04-20 15:51 | 40.89157 | 29.32077 | 307 ft | 9 kts | 248° |
| 2026-04-20 15:51 | 40.89127 | 29.31944 | 307 ft | 21 kts | 259° |
| 2026-04-20 15:51 | 40.89125 | 29.31700 | 306 ft | 32 kts | 275° |
| 2026-04-20 15:51 | 40.89142 | 29.31474 | 306 ft | 13 kts | 290° |
| 2026-04-20 15:52 | 40.89201 | 29.31422 | 306 ft | 10 kts | 343° |
| 2026-04-20 15:52 | 40.89256 | 29.31466 | 307 ft | 11 kts | 32° |
| 2026-04-20 15:52 | 40.89333 | 29.31440 | 305 ft | 13 kts | 334° |
| 2026-04-20 15:53 | 40.89526 | 29.31317 | 310 ft | 15 kts | 334° |
| 2026-04-20 15:53 | 40.89621 | 29.31256 | 313 ft | 15 kts | 334° |
| 2026-04-20 15:53 | 40.89709 | 29.31198 | 318 ft | 14 kts | 332° |
| 2026-04-20 15:53 | 40.89794 | 29.31120 | 315 ft | 12 kts | 332° |
| 2026-04-20 15:54 | 40.89807 | 29.31111 | 316 ft | 0 kts | 333° |
| 2026-04-20 15:54 | 40.89808 | 29.31110 | 316 ft | 1 kts | 333° |
| 2026-04-20 15:54 | 40.89835 | 29.31092 | 319 ft | 8 kts | 334° |
| 2026-04-20 15:55 | 40.89909 | 29.31087 | 318 ft | 14 kts | 38° |
| 2026-04-20 15:55 | 40.89996 | 29.31216 | 319 ft | 22 kts | 46° |
| 2026-04-20 15:55 | 40.90114 | 29.31332 | 319 ft | 18 kts | 34° |
| 2026-04-20 15:55 | 40.90215 | 29.31423 | 320 ft | 19 kts | 35° |
| 2026-04-20 15:56 | 40.90280 | 29.31505 | 320 ft | 20 kts | 60° |
| 2026-04-20 15:56 | 40.90362 | 29.31729 | 320 ft | 20 kts | 63° |
| 2026-04-20 15:56 | 40.90414 | 29.31868 | 319 ft | 14 kts | 64° |
| 2026-04-20 15:56 | 40.90441 | 29.31941 | 320 ft | 13 kts | 64° |
| 2026-04-20 15:57 | 40.90491 | 29.31994 | 320 ft | 9 kts | 353° |
| 2026-04-20 15:57 | 40.90571 | 29.31946 | 320 ft | 9 kts | 334° |
| 2026-04-20 15:57 | 40.90609 | 29.31919 | 320 ft | 9 kts | 316° |
| 2026-04-20 15:57 | 40.90596 | 29.31833 | 319 ft | 6 kts | 249° |
| 2026-04-20 15:58 | 40.90610 | 29.31805 | 318 ft | 6 kts | 332° |
| 2026-04-20 15:58 | 40.90648 | 29.31780 | 320 ft | 6 kts | 334° |
| 2026-04-20 15:58 | 40.90674 | 29.31764 | 320 ft | 2 kts | 334° |
| 2026-04-20 15:58 | 40.90678 | 29.31761 | 320 ft | 1 kts | 334° |